sensor_id;sensor_type;location;lat;lon;timestamp;P1;durP1;ratioP1;P2;durP2;ratioP2
72115;SDS011;59991;52.140;5.428;2022-07-21T00:00:40;11.25;;;9.52;;
72115;SDS011;59991;52.140;5.428;2022-07-21T00:02:41;12.23;;;10.13;;
72115;SDS011;59991;52.140;5.428;2022-07-21T00:04:42;12.43;;;9.37;;
72115;SDS011;59991;52.140;5.428;2022-07-21T00:06:44;10.63;;;9.50;;
72115;SDS011;59991;52.140;5.428;2022-07-21T00:08:47;10.88;;;9.25;;
72115;SDS011;59991;52.140;5.428;2022-07-21T00:10:48;10.07;;;9.18;;
72115;SDS011;59991;52.140;5.428;2022-07-21T00:12:50;11.75;;;9.75;;
72115;SDS011;59991;52.140;5.428;2022-07-21T00:14:51;10.07;;;9.07;;
72115;SDS011;59991;52.140;5.428;2022-07-21T00:17:10;11.10;;;9.13;;
72115;SDS011;59991;52.140;5.428;2022-07-21T00:19:29;14.07;;;11.27;;
72115;SDS011;59991;52.140;5.428;2022-07-21T00:21:30;11.32;;;9.43;;
72115;SDS011;59991;52.140;5.428;2022-07-21T00:23:31;10.82;;;9.85;;
72115;SDS011;59991;52.140;5.428;2022-07-21T00:25:33;11.50;;;10.30;;
72115;SDS011;59991;52.140;5.428;2022-07-21T00:27:35;11.55;;;10.38;;
72115;SDS011;59991;52.140;5.428;2022-07-21T00:29:36;11.43;;;10.05;;
72115;SDS011;59991;52.140;5.428;2022-07-21T00:31:38;10.93;;;9.23;;
72115;SDS011;59991;52.140;5.428;2022-07-21T00:33:39;11.10;;;9.95;;
72115;SDS011;59991;52.140;5.428;2022-07-21T00:35:40;11.80;;;9.53;;
72115;SDS011;59991;52.140;5.428;2022-07-21T00:37:42;11.45;;;10.25;;
72115;SDS011;59991;52.140;5.428;2022-07-21T00:39:44;10.15;;;9.25;;
72115;SDS011;59991;52.140;5.428;2022-07-21T00:41:45;10.00;;;9.10;;
72115;SDS011;59991;52.140;5.428;2022-07-21T00:43:46;12.73;;;9.80;;
72115;SDS011;59991;52.140;5.428;2022-07-21T00:45:48;11.57;;;9.07;;
72115;SDS011;59991;52.140;5.428;2022-07-21T00:47:49;8.30;;;7.60;;
72115;SDS011;59991;52.140;5.428;2022-07-21T00:49:51;8.85;;;7.95;;
72115;SDS011;59991;52.140;5.428;2022-07-21T00:51:53;8.45;;;7.70;;
72115;SDS011;59991;52.140;5.428;2022-07-21T00:53:54;8.88;;;8.13;;
72115;SDS011;59991;52.140;5.428;2022-07-21T00:55:56;8.13;;;7.53;;
72115;SDS011;59991;52.140;5.428;2022-07-21T00:57:59;7.90;;;7.10;;
72115;SDS011;59991;52.140;5.428;2022-07-21T01:00:02;8.13;;;7.28;;
72115;SDS011;59991;52.140;5.428;2022-07-21T01:02:05;8.27;;;7.47;;
72115;SDS011;59991;52.140;5.428;2022-07-21T01:04:25;7.28;;;6.47;;
72115;SDS011;59991;52.140;5.428;2022-07-21T01:06:28;7.38;;;6.68;;
72115;SDS011;59991;52.140;5.428;2022-07-21T01:08:47;6.90;;;6.30;;
72115;SDS011;59991;52.140;5.428;2022-07-21T01:10:49;6.75;;;6.07;;
72115;SDS011;59991;52.140;5.428;2022-07-21T01:12:51;6.28;;;5.68;;
72115;SDS011;59991;52.140;5.428;2022-07-21T01:14:52;8.77;;;6.97;;
72115;SDS011;59991;52.140;5.428;2022-07-21T01:16:54;6.97;;;6.32;;
72115;SDS011;59991;52.140;5.428;2022-07-21T01:18:55;8.40;;;7.40;;
72115;SDS011;59991;52.140;5.428;2022-07-21T01:20:57;7.55;;;6.88;;
72115;SDS011;59991;52.140;5.428;2022-07-21T01:23:05;7.22;;;6.63;;
72115;SDS011;59991;52.140;5.428;2022-07-21T01:25:07;6.93;;;6.32;;
72115;SDS011;59991;52.140;5.428;2022-07-21T01:27:09;7.70;;;6.90;;
72115;SDS011;59991;52.140;5.428;2022-07-21T01:29:10;6.80;;;6.20;;
72115;SDS011;59991;52.140;5.428;2022-07-21T01:31:12;7.00;;;6.03;;
72115;SDS011;59991;52.140;5.428;2022-07-21T01:33:14;7.00;;;6.30;;
72115;SDS011;59991;52.140;5.428;2022-07-21T01:35:16;6.20;;;5.60;;
72115;SDS011;59991;52.140;5.428;2022-07-21T01:37:21;7.03;;;6.40;;
72115;SDS011;59991;52.140;5.428;2022-07-21T01:39:24;7.50;;;6.80;;
72115;SDS011;59991;52.140;5.428;2022-07-21T01:41:44;7.00;;;6.30;;
72115;SDS011;59991;52.140;5.428;2022-07-21T01:43:46;6.65;;;6.05;;
72115;SDS011;59991;52.140;5.428;2022-07-21T01:45:47;9.30;;;7.32;;
72115;SDS011;59991;52.140;5.428;2022-07-21T01:47:49;6.40;;;5.85;;
72115;SDS011;59991;52.140;5.428;2022-07-21T01:49:51;7.57;;;6.38;;
72115;SDS011;59991;52.140;5.428;2022-07-21T01:51:52;6.00;;;5.40;;
72115;SDS011;59991;52.140;5.428;2022-07-21T01:53:53;7.87;;;7.03;;
72115;SDS011;59991;52.140;5.428;2022-07-21T01:55:55;7.63;;;6.75;;
72115;SDS011;59991;52.140;5.428;2022-07-21T01:57:57;7.45;;;6.80;;
72115;SDS011;59991;52.140;5.428;2022-07-21T01:59:58;7.15;;;6.55;;
72115;SDS011;59991;52.140;5.428;2022-07-21T02:01:59;7.00;;;6.30;;
72115;SDS011;59991;52.140;5.428;2022-07-21T02:04:02;6.90;;;6.30;;
72115;SDS011;59991;52.140;5.428;2022-07-21T02:06:04;7.03;;;6.40;;
72115;SDS011;59991;52.140;5.428;2022-07-21T02:08:06;6.63;;;6.03;;
72115;SDS011;59991;52.140;5.428;2022-07-21T02:10:08;6.25;;;5.20;;
72115;SDS011;59991;52.140;5.428;2022-07-21T02:12:10;6.78;;;6.05;;
72115;SDS011;59991;52.140;5.428;2022-07-21T02:14:11;7.17;;;6.10;;
72115;SDS011;59991;52.140;5.428;2022-07-21T02:16:13;6.78;;;6.10;;
72115;SDS011;59991;52.140;5.428;2022-07-21T02:18:15;7.47;;;6.88;;
72115;SDS011;59991;52.140;5.428;2022-07-21T02:20:16;7.30;;;6.60;;
72115;SDS011;59991;52.140;5.428;2022-07-21T02:22:18;7.78;;;7.00;;
72115;SDS011;59991;52.140;5.428;2022-07-21T02:24:19;7.70;;;6.83;;
72115;SDS011;59991;52.140;5.428;2022-07-21T02:26:21;8.03;;;7.33;;
72115;SDS011;59991;52.140;5.428;2022-07-21T02:28:23;7.43;;;6.70;;
72115;SDS011;59991;52.140;5.428;2022-07-21T02:30:24;7.43;;;6.72;;
72115;SDS011;59991;52.140;5.428;2022-07-21T02:32:26;7.80;;;7.10;;
72115;SDS011;59991;52.140;5.428;2022-07-21T02:34:27;8.43;;;7.72;;
72115;SDS011;59991;52.140;5.428;2022-07-21T02:36:29;9.17;;;8.37;;
72115;SDS011;59991;52.140;5.428;2022-07-21T02:38:30;8.50;;;7.70;;
72115;SDS011;59991;52.140;5.428;2022-07-21T02:40:32;7.32;;;6.63;;
72115;SDS011;59991;52.140;5.428;2022-07-21T02:42:33;9.93;;;8.52;;
72115;SDS011;59991;52.140;5.428;2022-07-21T02:44:34;8.93;;;8.02;;
72115;SDS011;59991;52.140;5.428;2022-07-21T02:46:37;10.23;;;8.23;;
72115;SDS011;59991;52.140;5.428;2022-07-21T02:48:38;10.88;;;8.57;;
72115;SDS011;59991;52.140;5.428;2022-07-21T02:50:41;10.90;;;9.80;;
72115;SDS011;59991;52.140;5.428;2022-07-21T02:52:44;11.20;;;9.45;;
72115;SDS011;59991;52.140;5.428;2022-07-21T02:54:46;11.75;;;10.55;;
72115;SDS011;59991;52.140;5.428;2022-07-21T02:56:48;11.37;;;9.73;;
72115;SDS011;59991;52.140;5.428;2022-07-21T02:58:49;14.10;;;10.87;;
72115;SDS011;59991;52.140;5.428;2022-07-21T03:00:53;12.40;;;10.68;;
72115;SDS011;59991;52.140;5.428;2022-07-21T03:02:58;14.13;;;11.05;;
72115;SDS011;59991;52.140;5.428;2022-07-21T03:05:01;14.15;;;11.93;;
72115;SDS011;59991;52.140;5.428;2022-07-21T03:07:04;11.82;;;10.57;;
72115;SDS011;59991;52.140;5.428;2022-07-21T03:09:05;12.80;;;11.00;;
72115;SDS011;59991;52.140;5.428;2022-07-21T03:11:07;13.02;;;11.32;;
72115;SDS011;59991;52.140;5.428;2022-07-21T03:13:10;11.73;;;10.52;;
72115;SDS011;59991;52.140;5.428;2022-07-21T03:15:11;11.27;;;10.13;;
72115;SDS011;59991;52.140;5.428;2022-07-21T03:17:13;12.00;;;10.88;;
72115;SDS011;59991;52.140;5.428;2022-07-21T03:19:14;11.00;;;9.90;;
72115;SDS011;59991;52.140;5.428;2022-07-21T03:21:16;12.20;;;10.93;;
72115;SDS011;59991;52.140;5.428;2022-07-21T03:23:17;13.02;;;11.73;;
72115;SDS011;59991;52.140;5.428;2022-07-21T03:25:19;12.18;;;10.85;;
72115;SDS011;59991;52.140;5.428;2022-07-21T03:27:21;12.00;;;10.90;;
72115;SDS011;59991;52.140;5.428;2022-07-21T03:29:22;13.77;;;11.33;;
72115;SDS011;59991;52.140;5.428;2022-07-21T03:31:24;11.60;;;10.48;;
72115;SDS011;59991;52.140;5.428;2022-07-21T03:33:25;12.32;;;11.13;;
72115;SDS011;59991;52.140;5.428;2022-07-21T03:35:27;13.68;;;12.00;;
72115;SDS011;59991;52.140;5.428;2022-07-21T03:37:28;14.05;;;12.45;;
72115;SDS011;59991;52.140;5.428;2022-07-21T03:39:31;13.13;;;11.50;;
72115;SDS011;59991;52.140;5.428;2022-07-21T03:41:32;13.23;;;11.93;;
72115;SDS011;59991;52.140;5.428;2022-07-21T03:43:34;13.77;;;12.30;;
72115;SDS011;59991;52.140;5.428;2022-07-21T03:45:35;14.18;;;12.43;;
72115;SDS011;59991;52.140;5.428;2022-07-21T03:47:37;15.88;;;13.18;;
72115;SDS011;59991;52.140;5.428;2022-07-21T03:49:39;13.90;;;11.80;;
72115;SDS011;59991;52.140;5.428;2022-07-21T03:51:40;14.33;;;12.63;;
72115;SDS011;59991;52.140;5.428;2022-07-21T03:53:42;14.40;;;12.40;;
72115;SDS011;59991;52.140;5.428;2022-07-21T03:55:43;14.88;;;12.75;;
72115;SDS011;59991;52.140;5.428;2022-07-21T03:57:47;14.63;;;13.13;;
72115;SDS011;59991;52.140;5.428;2022-07-21T03:59:50;14.52;;;13.07;;
72115;SDS011;59991;52.140;5.428;2022-07-21T04:01:58;14.77;;;13.07;;
72115;SDS011;59991;52.140;5.428;2022-07-21T04:03:59;14.80;;;13.20;;
72115;SDS011;59991;52.140;5.428;2022-07-21T04:06:01;15.45;;;13.50;;
72115;SDS011;59991;52.140;5.428;2022-07-21T04:08:02;14.65;;;12.90;;
72115;SDS011;59991;52.140;5.428;2022-07-21T04:10:23;15.32;;;12.50;;
72115;SDS011;59991;52.140;5.428;2022-07-21T04:12:28;14.53;;;12.67;;
72115;SDS011;59991;52.140;5.428;2022-07-21T04:14:29;14.68;;;13.13;;
72115;SDS011;59991;52.140;5.428;2022-07-21T04:16:31;14.60;;;13.10;;
72115;SDS011;59991;52.140;5.428;2022-07-21T04:18:32;15.10;;;12.95;;
72115;SDS011;59991;52.140;5.428;2022-07-21T04:20:34;18.23;;;13.80;;
72115;SDS011;59991;52.140;5.428;2022-07-21T04:22:36;14.90;;;13.40;;
72115;SDS011;59991;52.140;5.428;2022-07-21T04:24:37;16.75;;;13.52;;
72115;SDS011;59991;52.140;5.428;2022-07-21T04:26:39;17.88;;;14.23;;
72115;SDS011;59991;52.140;5.428;2022-07-21T04:28:40;14.77;;;12.85;;
72115;SDS011;59991;52.140;5.428;2022-07-21T04:30:42;16.92;;;15.18;;
72115;SDS011;59991;52.140;5.428;2022-07-21T04:32:43;18.23;;;14.30;;
72115;SDS011;59991;52.140;5.428;2022-07-21T04:34:45;18.83;;;14.87;;
72115;SDS011;59991;52.140;5.428;2022-07-21T04:36:46;18.40;;;15.38;;
72115;SDS011;59991;52.140;5.428;2022-07-21T04:38:48;18.60;;;15.50;;
72115;SDS011;59991;52.140;5.428;2022-07-21T04:40:50;16.95;;;15.10;;
72115;SDS011;59991;52.140;5.428;2022-07-21T04:42:51;16.70;;;14.90;;
72115;SDS011;59991;52.140;5.428;2022-07-21T04:44:53;18.93;;;15.17;;
72115;SDS011;59991;52.140;5.428;2022-07-21T04:46:54;17.10;;;14.88;;
72115;SDS011;59991;52.140;5.428;2022-07-21T04:48:56;17.10;;;15.23;;
72115;SDS011;59991;52.140;5.428;2022-07-21T04:50:57;17.73;;;15.35;;
72115;SDS011;59991;52.140;5.428;2022-07-21T04:52:59;16.63;;;14.88;;
72115;SDS011;59991;52.140;5.428;2022-07-21T04:55:00;16.03;;;14.33;;
72115;SDS011;59991;52.140;5.428;2022-07-21T04:57:02;22.40;;;15.48;;
72115;SDS011;59991;52.140;5.428;2022-07-21T04:59:03;21.38;;;16.73;;
72115;SDS011;59991;52.140;5.428;2022-07-21T05:01:05;20.05;;;16.25;;
72115;SDS011;59991;52.140;5.428;2022-07-21T05:03:06;22.05;;;17.88;;
72115;SDS011;59991;52.140;5.428;2022-07-21T05:05:08;20.97;;;16.37;;
72115;SDS011;59991;52.140;5.428;2022-07-21T05:07:10;18.95;;;16.02;;
72115;SDS011;59991;52.140;5.428;2022-07-21T05:09:12;19.75;;;17.42;;
72115;SDS011;59991;52.140;5.428;2022-07-21T05:11:31;22.50;;;16.30;;
72115;SDS011;59991;52.140;5.428;2022-07-21T05:13:32;20.60;;;16.63;;
72115;SDS011;59991;52.140;5.428;2022-07-21T05:15:34;18.33;;;15.30;;
72115;SDS011;59991;52.140;5.428;2022-07-21T05:17:35;19.13;;;16.97;;
72115;SDS011;59991;52.140;5.428;2022-07-21T05:19:37;24.77;;;18.75;;
72115;SDS011;59991;52.140;5.428;2022-07-21T05:21:38;21.52;;;17.20;;
72115;SDS011;59991;52.140;5.428;2022-07-21T05:23:39;20.17;;;17.00;;
72115;SDS011;59991;52.140;5.428;2022-07-21T05:25:41;23.30;;;17.08;;
72115;SDS011;59991;52.140;5.428;2022-07-21T05:27:42;22.27;;;18.07;;
72115;SDS011;59991;52.140;5.428;2022-07-21T05:29:43;23.45;;;18.55;;
72115;SDS011;59991;52.140;5.428;2022-07-21T05:31:45;27.30;;;19.63;;
72115;SDS011;59991;52.140;5.428;2022-07-21T05:33:46;22.35;;;18.45;;
72115;SDS011;59991;52.140;5.428;2022-07-21T05:35:48;26.98;;;20.98;;
72115;SDS011;59991;52.140;5.428;2022-07-21T05:37:49;23.83;;;19.07;;
72115;SDS011;59991;52.140;5.428;2022-07-21T05:39:51;25.65;;;18.80;;
72115;SDS011;59991;52.140;5.428;2022-07-21T05:41:52;27.17;;;21.00;;
72115;SDS011;59991;52.140;5.428;2022-07-21T05:43:54;28.15;;;20.40;;
72115;SDS011;59991;52.140;5.428;2022-07-21T05:45:55;27.85;;;20.75;;
72115;SDS011;59991;52.140;5.428;2022-07-21T05:47:59;25.97;;;20.57;;
72115;SDS011;59991;52.140;5.428;2022-07-21T05:50:01;25.77;;;21.50;;
72115;SDS011;59991;52.140;5.428;2022-07-21T05:52:02;29.52;;;19.83;;
72115;SDS011;59991;52.140;5.428;2022-07-21T05:54:04;27.00;;;20.88;;
72115;SDS011;59991;52.140;5.428;2022-07-21T05:56:06;27.42;;;21.40;;
72115;SDS011;59991;52.140;5.428;2022-07-21T05:58:26;28.30;;;21.65;;
72115;SDS011;59991;52.140;5.428;2022-07-21T06:00:27;29.30;;;21.47;;
72115;SDS011;59991;52.140;5.428;2022-07-21T06:02:29;26.08;;;20.73;;
72115;SDS011;59991;52.140;5.428;2022-07-21T06:04:31;25.05;;;21.08;;
72115;SDS011;59991;52.140;5.428;2022-07-21T06:06:33;27.25;;;20.40;;
72115;SDS011;59991;52.140;5.428;2022-07-21T06:08:36;25.63;;;20.92;;
72115;SDS011;59991;52.140;5.428;2022-07-21T06:10:38;24.17;;;18.90;;
72115;SDS011;59991;52.140;5.428;2022-07-21T06:12:40;25.07;;;21.10;;
72115;SDS011;59991;52.140;5.428;2022-07-21T06:14:41;26.65;;;20.50;;
72115;SDS011;59991;52.140;5.428;2022-07-21T06:16:43;23.77;;;20.05;;
72115;SDS011;59991;52.140;5.428;2022-07-21T06:18:44;25.90;;;19.00;;
72115;SDS011;59991;52.140;5.428;2022-07-21T06:20:46;26.42;;;18.90;;
72115;SDS011;59991;52.140;5.428;2022-07-21T06:22:47;29.23;;;19.17;;
72115;SDS011;59991;52.140;5.428;2022-07-21T06:24:49;25.77;;;18.75;;
72115;SDS011;59991;52.140;5.428;2022-07-21T06:26:50;24.77;;;17.65;;
72115;SDS011;59991;52.140;5.428;2022-07-21T06:28:51;25.50;;;18.25;;
72115;SDS011;59991;52.140;5.428;2022-07-21T06:30:53;28.52;;;18.10;;
72115;SDS011;59991;52.140;5.428;2022-07-21T06:32:56;23.73;;;17.73;;
72115;SDS011;59991;52.140;5.428;2022-07-21T06:34:58;22.03;;;17.57;;
72115;SDS011;59991;52.140;5.428;2022-07-21T06:36:59;23.75;;;17.08;;
72115;SDS011;59991;52.140;5.428;2022-07-21T06:39:00;23.92;;;17.63;;
72115;SDS011;59991;52.140;5.428;2022-07-21T06:41:02;25.30;;;17.58;;
72115;SDS011;59991;52.140;5.428;2022-07-21T06:43:04;27.23;;;19.02;;
72115;SDS011;59991;52.140;5.428;2022-07-21T06:45:25;24.93;;;17.67;;
72115;SDS011;59991;52.140;5.428;2022-07-21T06:47:27;22.58;;;17.52;;
72115;SDS011;59991;52.140;5.428;2022-07-21T06:49:28;22.20;;;16.52;;
72115;SDS011;59991;52.140;5.428;2022-07-21T06:51:29;24.85;;;16.63;;
72115;SDS011;59991;52.140;5.428;2022-07-21T06:53:31;24.95;;;17.75;;
72115;SDS011;59991;52.140;5.428;2022-07-21T06:55:32;25.37;;;16.33;;
72115;SDS011;59991;52.140;5.428;2022-07-21T06:57:34;23.10;;;15.90;;
72115;SDS011;59991;52.140;5.428;2022-07-21T06:59:36;27.40;;;16.60;;
72115;SDS011;59991;52.140;5.428;2022-07-21T07:01:38;27.02;;;18.25;;
72115;SDS011;59991;52.140;5.428;2022-07-21T07:03:40;30.02;;;18.10;;
72115;SDS011;59991;52.140;5.428;2022-07-21T07:05:43;26.42;;;18.05;;
72115;SDS011;59991;52.140;5.428;2022-07-21T07:07:46;28.03;;;19.87;;
72115;SDS011;59991;52.140;5.428;2022-07-21T07:09:49;30.90;;;17.88;;
72115;SDS011;59991;52.140;5.428;2022-07-21T07:11:50;24.33;;;18.23;;
72115;SDS011;59991;52.140;5.428;2022-07-21T07:14:13;32.70;;;19.17;;
72115;SDS011;59991;52.140;5.428;2022-07-21T07:16:19;31.15;;;21.95;;
72115;SDS011;59991;52.140;5.428;2022-07-21T07:18:20;34.63;;;20.87;;
72115;SDS011;59991;52.140;5.428;2022-07-21T07:20:40;32.97;;;20.13;;
72115;SDS011;59991;52.140;5.428;2022-07-21T07:22:42;36.78;;;22.33;;
72115;SDS011;59991;52.140;5.428;2022-07-21T07:24:44;36.83;;;22.00;;
72115;SDS011;59991;52.140;5.428;2022-07-21T07:26:45;34.67;;;21.25;;
72115;SDS011;59991;52.140;5.428;2022-07-21T07:28:46;37.13;;;22.00;;
72115;SDS011;59991;52.140;5.428;2022-07-21T07:30:48;38.37;;;22.70;;
72115;SDS011;59991;52.140;5.428;2022-07-21T07:32:50;40.88;;;24.20;;
72115;SDS011;59991;52.140;5.428;2022-07-21T07:34:51;39.90;;;23.75;;
72115;SDS011;59991;52.140;5.428;2022-07-21T07:36:53;31.58;;;22.00;;
72115;SDS011;59991;52.140;5.428;2022-07-21T07:38:55;29.83;;;21.70;;
72115;SDS011;59991;52.140;5.428;2022-07-21T07:40:57;33.90;;;22.33;;
72115;SDS011;59991;52.140;5.428;2022-07-21T07:42:59;36.08;;;21.50;;
72115;SDS011;59991;52.140;5.428;2022-07-21T07:45:08;41.78;;;22.63;;
72115;SDS011;59991;52.140;5.428;2022-07-21T07:47:10;40.90;;;23.77;;
72115;SDS011;59991;52.140;5.428;2022-07-21T07:49:11;34.75;;;22.83;;
72115;SDS011;59991;52.140;5.428;2022-07-21T07:51:19;38.17;;;21.87;;
72115;SDS011;59991;52.140;5.428;2022-07-21T07:53:20;37.25;;;22.55;;
72115;SDS011;59991;52.140;5.428;2022-07-21T07:55:40;34.83;;;23.15;;
72115;SDS011;59991;52.140;5.428;2022-07-21T07:57:42;36.67;;;21.85;;
72115;SDS011;59991;52.140;5.428;2022-07-21T07:59:44;41.85;;;24.98;;
72115;SDS011;59991;52.140;5.428;2022-07-21T08:01:45;40.17;;;22.40;;
72115;SDS011;59991;52.140;5.428;2022-07-21T08:03:47;43.70;;;24.10;;
72115;SDS011;59991;52.140;5.428;2022-07-21T08:05:49;39.92;;;25.05;;
72115;SDS011;59991;52.140;5.428;2022-07-21T08:07:51;41.80;;;24.90;;
72115;SDS011;59991;52.140;5.428;2022-07-21T08:09:52;45.40;;;24.98;;
72115;SDS011;59991;52.140;5.428;2022-07-21T08:12:14;41.53;;;24.00;;
72115;SDS011;59991;52.140;5.428;2022-07-21T08:14:16;41.57;;;25.50;;
72115;SDS011;59991;52.140;5.428;2022-07-21T08:16:18;43.60;;;25.38;;
72115;SDS011;59991;52.140;5.428;2022-07-21T08:18:19;37.92;;;22.98;;
72115;SDS011;59991;52.140;5.428;2022-07-21T08:20:21;45.40;;;23.27;;
72115;SDS011;59991;52.140;5.428;2022-07-21T08:22:22;40.20;;;23.35;;
72115;SDS011;59991;52.140;5.428;2022-07-21T08:24:24;36.40;;;23.87;;
72115;SDS011;59991;52.140;5.428;2022-07-21T08:26:26;36.78;;;21.33;;
72115;SDS011;59991;52.140;5.428;2022-07-21T08:28:28;39.42;;;23.08;;
72115;SDS011;59991;52.140;5.428;2022-07-21T08:30:29;34.42;;;21.90;;
72115;SDS011;59991;52.140;5.428;2022-07-21T08:32:32;36.47;;;21.58;;
72115;SDS011;59991;52.140;5.428;2022-07-21T08:34:33;34.33;;;22.07;;
72115;SDS011;59991;52.140;5.428;2022-07-21T08:36:34;37.30;;;22.43;;
72115;SDS011;59991;52.140;5.428;2022-07-21T08:38:36;34.78;;;22.08;;
72115;SDS011;59991;52.140;5.428;2022-07-21T08:40:39;35.05;;;21.38;;
72115;SDS011;59991;52.140;5.428;2022-07-21T08:42:43;32.40;;;21.27;;
72115;SDS011;59991;52.140;5.428;2022-07-21T08:44:44;31.25;;;22.02;;
72115;SDS011;59991;52.140;5.428;2022-07-21T08:46:46;40.30;;;21.97;;
72115;SDS011;59991;52.140;5.428;2022-07-21T08:48:51;31.50;;;22.48;;
72115;SDS011;59991;52.140;5.428;2022-07-21T08:50:53;38.03;;;21.70;;
72115;SDS011;59991;52.140;5.428;2022-07-21T08:52:54;37.42;;;21.05;;
72115;SDS011;59991;52.140;5.428;2022-07-21T08:55:01;35.72;;;20.23;;
72115;SDS011;59991;52.140;5.428;2022-07-21T08:57:03;31.73;;;19.60;;
72115;SDS011;59991;52.140;5.428;2022-07-21T08:59:06;34.92;;;20.15;;
72115;SDS011;59991;52.140;5.428;2022-07-21T09:01:09;33.00;;;20.20;;
72115;SDS011;59991;52.140;5.428;2022-07-21T09:05:19;27.85;;;18.58;;
72115;SDS011;59991;52.140;5.428;2022-07-21T09:07:21;26.20;;;17.53;;
72115;SDS011;59991;52.140;5.428;2022-07-21T09:09:26;30.07;;;19.33;;
72115;SDS011;59991;52.140;5.428;2022-07-21T09:11:29;26.50;;;19.00;;
72115;SDS011;59991;52.140;5.428;2022-07-21T09:13:35;27.02;;;19.05;;
72115;SDS011;59991;52.140;5.428;2022-07-21T09:15:36;24.30;;;17.75;;
72115;SDS011;59991;52.140;5.428;2022-07-21T09:17:37;25.40;;;18.70;;
72115;SDS011;59991;52.140;5.428;2022-07-21T09:19:59;20.50;;;15.63;;
72115;SDS011;59991;52.140;5.428;2022-07-21T09:22:02;30.73;;;17.27;;
72115;SDS011;59991;52.140;5.428;2022-07-21T09:26:27;20.80;;;14.43;;
72115;SDS011;59991;52.140;5.428;2022-07-21T09:28:29;21.38;;;14.20;;
72115;SDS011;59991;52.140;5.428;2022-07-21T09:30:33;19.90;;;12.77;;
72115;SDS011;59991;52.140;5.428;2022-07-21T09:32:48;13.63;;;10.75;;
72115;SDS011;59991;52.140;5.428;2022-07-21T09:34:51;15.82;;;11.82;;
72115;SDS011;59991;52.140;5.428;2022-07-21T09:37:06;12.85;;;10.07;;
72115;SDS011;59991;52.140;5.428;2022-07-21T09:39:09;12.50;;;10.77;;
72115;SDS011;59991;52.140;5.428;2022-07-21T09:43:32;14.47;;;10.17;;
72115;SDS011;59991;52.140;5.428;2022-07-21T09:45:36;12.65;;;8.88;;
72115;SDS011;59991;52.140;5.428;2022-07-21T09:47:38;12.57;;;9.27;;
72115;SDS011;59991;52.140;5.428;2022-07-21T09:49:41;9.98;;;8.43;;
72115;SDS011;59991;52.140;5.428;2022-07-21T09:52:01;9.07;;;8.00;;
72115;SDS011;59991;52.140;5.428;2022-07-21T09:54:04;11.23;;;7.90;;
72115;SDS011;59991;52.140;5.428;2022-07-21T09:56:08;10.33;;;7.40;;
72115;SDS011;59991;52.140;5.428;2022-07-21T09:58:09;6.07;;;5.45;;
72115;SDS011;59991;52.140;5.428;2022-07-21T10:00:12;5.70;;;5.13;;
72115;SDS011;59991;52.140;5.428;2022-07-21T10:02:21;6.47;;;4.88;;
72115;SDS011;59991;52.140;5.428;2022-07-21T10:04:25;5.43;;;4.93;;
72115;SDS011;59991;52.140;5.428;2022-07-21T10:06:46;6.63;;;4.20;;
72115;SDS011;59991;52.140;5.428;2022-07-21T10:08:48;5.68;;;4.80;;
72115;SDS011;59991;52.140;5.428;2022-07-21T10:10:50;5.95;;;5.05;;
72115;SDS011;59991;52.140;5.428;2022-07-21T10:13:12;5.22;;;4.28;;
72115;SDS011;59991;52.140;5.428;2022-07-21T10:15:13;7.05;;;4.88;;
72115;SDS011;59991;52.140;5.428;2022-07-21T10:17:16;5.90;;;4.57;;
72115;SDS011;59991;52.140;5.428;2022-07-21T10:19:29;4.10;;;3.77;;
72115;SDS011;59991;52.140;5.428;2022-07-21T10:23:43;3.10;;;2.80;;
72115;SDS011;59991;52.140;5.428;2022-07-21T10:25:46;4.35;;;2.30;;
72115;SDS011;59991;52.140;5.428;2022-07-21T10:30:11;2.40;;;2.20;;
72115;SDS011;59991;52.140;5.428;2022-07-21T10:32:15;7.20;;;2.53;;
72115;SDS011;59991;52.140;5.428;2022-07-21T10:34:18;4.65;;;2.70;;
72115;SDS011;59991;52.140;5.428;2022-07-21T10:38:38;3.97;;;3.08;;
72115;SDS011;59991;52.140;5.428;2022-07-21T10:40:39;3.23;;;2.90;;
72115;SDS011;59991;52.140;5.428;2022-07-21T10:42:41;3.10;;;2.80;;
72115;SDS011;59991;52.140;5.428;2022-07-21T10:44:43;3.72;;;3.42;;
72115;SDS011;59991;52.140;5.428;2022-07-21T10:46:49;4.28;;;3.40;;
72115;SDS011;59991;52.140;5.428;2022-07-21T10:49:03;6.32;;;3.63;;
72115;SDS011;59991;52.140;5.428;2022-07-21T10:51:07;4.87;;;3.60;;
72115;SDS011;59991;52.140;5.428;2022-07-21T10:53:14;4.85;;;3.63;;
72115;SDS011;59991;52.140;5.428;2022-07-21T10:55:18;4.53;;;3.97;;
72115;SDS011;59991;52.140;5.428;2022-07-21T11:00:28;4.57;;;3.90;;
72115;SDS011;59991;52.140;5.428;2022-07-21T11:02:50;3.90;;;3.47;;
72115;SDS011;59991;52.140;5.428;2022-07-21T11:05:05;4.80;;;4.17;;
72115;SDS011;59991;52.140;5.428;2022-07-21T11:07:07;4.93;;;3.88;;
72115;SDS011;59991;52.140;5.428;2022-07-21T11:11:24;4.97;;;3.78;;
72115;SDS011;59991;52.140;5.428;2022-07-21T11:13:27;5.15;;;4.68;;
72115;SDS011;59991;52.140;5.428;2022-07-21T11:15:59;4.97;;;4.17;;
72115;SDS011;59991;52.140;5.428;2022-07-21T11:18:02;3.92;;;3.63;;
72115;SDS011;59991;52.140;5.428;2022-07-21T11:20:22;4.60;;;4.10;;
72115;SDS011;59991;52.140;5.428;2022-07-21T11:22:30;5.13;;;4.63;;
72115;SDS011;59991;52.140;5.428;2022-07-21T11:24:31;5.85;;;5.10;;
72115;SDS011;59991;52.140;5.428;2022-07-21T11:26:33;6.30;;;4.10;;
72115;SDS011;59991;52.140;5.428;2022-07-21T11:28:35;6.53;;;4.93;;
72115;SDS011;59991;52.140;5.428;2022-07-21T11:30:37;5.20;;;4.70;;
72115;SDS011;59991;52.140;5.428;2022-07-21T11:32:58;6.13;;;4.57;;
72115;SDS011;59991;52.140;5.428;2022-07-21T11:35:01;4.10;;;3.70;;
72115;SDS011;59991;52.140;5.428;2022-07-21T11:37:03;5.03;;;4.10;;
72115;SDS011;59991;52.140;5.428;2022-07-21T11:39:25;6.63;;;4.90;;
72115;SDS011;59991;52.140;5.428;2022-07-21T11:41:26;4.75;;;4.35;;
72115;SDS011;59991;52.140;5.428;2022-07-21T11:43:40;6.10;;;4.35;;
72115;SDS011;59991;52.140;5.428;2022-07-21T11:45:53;4.22;;;3.83;;
72115;SDS011;59991;52.140;5.428;2022-07-21T11:47:55;4.18;;;3.83;;
72115;SDS011;59991;52.140;5.428;2022-07-21T11:49:57;4.37;;;3.93;;
72115;SDS011;59991;52.140;5.428;2022-07-21T11:52:02;4.60;;;3.50;;
72115;SDS011;59991;52.140;5.428;2022-07-21T11:54:05;3.35;;;2.97;;
72115;SDS011;59991;52.140;5.428;2022-07-21T11:56:12;4.00;;;3.65;;
72115;SDS011;59991;52.140;5.428;2022-07-21T11:58:15;4.72;;;3.55;;
72115;SDS011;59991;52.140;5.428;2022-07-21T12:00:16;5.07;;;3.33;;
72115;SDS011;59991;52.140;5.428;2022-07-21T12:02:25;3.95;;;3.63;;
72115;SDS011;59991;52.140;5.428;2022-07-21T12:04:35;4.72;;;3.85;;
72115;SDS011;59991;52.140;5.428;2022-07-21T12:06:40;4.43;;;4.03;;
72115;SDS011;59991;52.140;5.428;2022-07-21T12:08:42;4.57;;;4.18;;
72115;SDS011;59991;52.140;5.428;2022-07-21T12:10:45;7.63;;;3.90;;
72115;SDS011;59991;52.140;5.428;2022-07-21T12:12:48;4.10;;;3.78;;
72115;SDS011;59991;52.140;5.428;2022-07-21T12:14:51;4.32;;;3.92;;
72115;SDS011;59991;52.140;5.428;2022-07-21T12:16:53;3.92;;;3.63;;
72115;SDS011;59991;52.140;5.428;2022-07-21T12:19:10;3.90;;;3.58;;
72115;SDS011;59991;52.140;5.428;2022-07-21T12:21:13;3.97;;;3.33;;
72115;SDS011;59991;52.140;5.428;2022-07-21T12:25:33;8.25;;;3.90;;
72115;SDS011;59991;52.140;5.428;2022-07-21T12:27:38;3.53;;;3.22;;
72115;SDS011;59991;52.140;5.428;2022-07-21T12:29:40;4.40;;;3.38;;
72115;SDS011;59991;52.140;5.428;2022-07-21T12:31:41;3.67;;;3.37;;